Time;durP1;ratioP1;P1;durP2;ratioP2;P2;SDS_P1;SDS_P2;PMS_P1;PMS_P2;Temp;Humidity;BMP_temperature;BMP_pressure;BME280_temperature;BME280_humidity;BME280_pressure;Samples;Min_cycle;Max_cycle;Signal;HPM_P1;HPM_P2
2023/09/27 00:00:09;;;;;;;7.10;6.50;;;13.80;99.90;;;;;;5029008;28;20436;-68
2023/09/27 00:02:35;;;;;;;7.13;6.53;;;13.80;99.90;;;;;;5035957;28;20478;-69
2023/09/27 00:05:06;;;;;;;7.80;7.10;;;13.70;99.90;;;;;;5035663;28;20471;-68
2023/09/27 00:07:35;;;;;;;8.53;7.73;;;13.60;99.90;;;;;;5027063;28;20528;-69
2023/09/27 00:10:01;;;;;;;8.13;7.43;;;13.70;99.90;;;;;;5034809;28;20760;-68
2023/09/27 00:12:27;;;;;;;8.40;7.70;;;13.80;99.90;;;;;;5034332;28;20469;-70
2023/09/27 00:14:53;;;;;;;9.00;8.30;;;13.80;99.90;;;;;;5039597;28;20451;-68
2023/09/27 00:17:19;;;;;;;8.23;7.20;;;13.80;99.90;;;;;;5031674;28;20181;-70
2023/09/27 00:19:45;;;;;;;8.40;7.70;;;13.90;99.90;;;;;;5031733;28;20599;-69
2023/09/27 00:22:10;;;;;;;9.67;7.60;;;14.00;99.90;;;;;;5033513;28;20239;-68
2023/09/27 00:24:36;;;;;;;9.43;7.03;;;14.00;99.90;;;;;;5030280;28;20178;-69
2023/09/27 00:27:02;;;;;;;7.30;6.70;;;14.10;99.90;;;;;;5019548;28;20183;-69
2023/09/27 00:29:27;;;;;;;8.03;7.33;;;14.10;99.90;;;;;;5019672;28;20187;-68
2023/09/27 00:31:53;;;;;;;6.57;6.07;;;14.10;99.90;;;;;;5025915;28;20203;-69
2023/09/27 00:34:18;;;;;;;8.50;7.20;;;14.00;99.90;;;;;;5025154;28;20190;-68
2023/09/27 00:36:44;;;;;;;7.90;7.10;;;13.90;99.90;;;;;;5024168;28;20244;-68
2023/09/27 00:39:09;;;;;;;8.03;7.00;;;13.80;99.90;;;;;;5031951;28;20209;-69
2023/09/27 00:41:35;;;;;;;7.43;6.70;;;13.60;99.90;;;;;;5040107;28;20229;-68
2023/09/27 00:44:00;;;;;;;7.90;7.30;;;13.50;99.90;;;;;;5031880;28;20186;-69
2023/09/27 00:46:26;;;;;;;7.63;6.93;;;13.50;99.90;;;;;;5027518;28;20640;-69
2023/09/27 00:48:52;;;;;;;10.03;9.13;;;13.50;99.90;;;;;;5018429;28;20183;-69
2023/09/27 00:51:18;;;;;;;9.83;8.90;;;13.50;99.90;;;;;;5025665;28;20210;-69
2023/09/27 00:53:46;;;;;;;7.73;7.13;;;13.50;99.90;;;;;;5034247;28;20467;-69
2023/09/27 00:56:12;;;;;;;8.00;6.30;;;13.50;99.90;;;;;;5035804;28;20441;-68
2023/09/27 00:58:38;;;;;;;7.97;7.10;;;13.50;99.90;;;;;;5028905;28;20447;-69
2023/09/27 01:01:03;;;;;;;7.20;6.60;;;13.50;99.90;;;;;;5029274;28;20183;-69
2023/09/27 01:03:29;;;;;;;8.97;7.00;;;13.40;99.90;;;;;;5049738;28;20448;-70
2023/09/27 01:05:55;;;;;;;8.00;7.20;;;13.40;99.90;;;;;;5038641;28;20186;-68
2023/09/27 01:08:21;;;;;;;8.20;7.40;;;13.30;99.90;;;;;;5033381;28;20805;-68
2023/09/27 01:10:47;;;;;;;7.43;6.90;;;13.40;99.90;;;;;;5025004;28;20189;-68
2023/09/27 01:13:13;;;;;;;6.87;6.27;;;13.40;99.90;;;;;;5028442;28;20218;-69
2023/09/27 01:15:38;;;;;;;7.40;6.90;;;13.20;99.90;;;;;;5032454;28;20945;-68
2023/09/27 01:18:04;;;;;;;7.77;7.17;;;13.10;99.90;;;;;;5027922;28;20601;-68
2023/09/27 01:20:33;;;;;;;7.67;7.07;;;13.10;99.90;;;;;;5044319;28;20182;-68
2023/09/27 01:23:00;;;;;;;6.50;5.90;;;13.20;99.90;;;;;;5028113;28;20312;-69
2023/09/27 01:25:30;;;;;;;7.40;6.70;;;13.10;99.90;;;;;;5037501;28;20427;-68
2023/09/27 01:27:57;;;;;;;7.20;6.60;;;13.10;99.90;;;;;;5035266;28;20436;-69
2023/09/27 01:30:24;;;;;;;7.60;7.10;;;13.00;99.90;;;;;;5017326;28;20446;-69
2023/09/27 01:32:50;;;;;;;8.13;7.47;;;13.00;99.90;;;;;;5029795;28;20468;-69
2023/09/27 01:35:15;;;;;;;8.50;7.20;;;13.00;99.90;;;;;;5025651;28;20441;-68
2023/09/27 01:37:41;;;;;;;7.50;6.83;;;12.90;99.90;;;;;;5025105;28;20214;-68
2023/09/27 01:40:09;;;;;;;7.53;6.73;;;13.00;99.90;;;;;;5025289;28;20183;-68
2023/09/27 01:42:42;;;;;;;6.70;6.13;;;13.00;99.90;;;;;;5042167;28;20535;-71
2023/09/27 01:45:08;;;;;;;7.07;6.57;;;12.90;99.90;;;;;;5032852;28;20428;-68
2023/09/27 01:47:33;;;;;;;6.53;5.90;;;13.00;99.90;;;;;;5037050;28;20498;-70
2023/09/27 01:49:58;;;;;;;8.00;7.20;;;13.00;99.90;;;;;;5020863;28;20183;-68
2023/09/27 01:52:24;;;;;;;6.70;5.80;;;13.00;99.90;;;;;;5024861;28;20210;-68
2023/09/27 01:54:49;;;;;;;6.27;5.80;;;13.00;99.90;;;;;;5051474;28;20186;-70
2023/09/27 01:57:15;;;;;;;7.00;6.33;;;13.00;99.90;;;;;;5033187;28;20181;-68
2023/09/27 01:59:40;;;;;;;6.20;5.70;;;13.00;99.90;;;;;;5036985;28;20182;-68
2023/09/27 02:02:06;;;;;;;6.90;6.30;;;12.80;99.90;;;;;;5029689;28;20572;-69
2023/09/27 02:04:31;;;;;;;5.93;5.50;;;12.80;99.90;;;;;;5045012;28;20260;-69
2023/09/27 02:06:57;;;;;;;7.10;6.40;;;12.80;99.90;;;;;;5034425;28;20177;-68
2023/09/27 02:09:22;;;;;;;7.20;6.60;;;12.80;99.90;;;;;;5033906;28;20181;-68
2023/09/27 02:11:48;;;;;;;6.90;6.40;;;12.90;99.90;;;;;;5036026;28;20313;-68
2023/09/27 02:14:13;;;;;;;7.07;6.23;;;12.90;99.90;;;;;;5030368;28;20190;-70
2023/09/27 02:16:41;;;;;;;7.50;6.90;;;12.90;99.90;;;;;;5028682;28;20610;-68
2023/09/27 02:19:06;;;;;;;7.10;6.37;;;12.90;99.90;;;;;;5031334;28;20174;-68
2023/09/27 02:21:32;;;;;;;6.43;5.83;;;12.90;99.90;;;;;;5029411;28;20568;-68
2023/09/27 02:23:57;;;;;;;6.10;5.70;;;12.90;99.90;;;;;;5035582;28;20270;-68
2023/09/27 02:26:23;;;;;;;6.43;5.83;;;12.90;99.90;;;;;;5028409;28;20186;-68
2023/09/27 02:28:49;;;;;;;8.30;7.50;;;12.90;99.90;;;;;;5029702;28;20554;-69
2023/09/27 02:31:15;;;;;;;7.53;6.83;;;12.80;99.90;;;;;;5031993;28;20214;-70
2023/09/27 02:33:40;;;;;;;6.93;6.33;;;12.90;99.90;;;;;;5019103;28;20449;-68
2023/09/27 02:36:06;;;;;;;7.17;6.57;;;12.70;99.90;;;;;;5030927;28;20672;-68
2023/09/27 02:38:35;;;;;;;7.20;6.60;;;12.70;99.90;;;;;;5048162;28;20316;-68
2023/09/27 02:41:02;;;;;;;7.43;6.83;;;12.80;99.90;;;;;;5039025;28;20186;-68
2023/09/27 02:43:27;;;;;;;7.47;6.83;;;12.70;99.90;;;;;;5034194;28;20509;-68
2023/09/27 02:45:53;;;;;;;7.73;7.07;;;12.80;99.90;;;;;;5029881;28;21120;-68
2023/09/27 02:48:19;;;;;;;7.93;7.23;;;12.80;99.90;;;;;;5033446;28;20186;-68
2023/09/27 02:50:53;;;;;;;10.10;7.30;;;12.80;99.90;;;;;;5029665;28;20280;-68
2023/09/27 02:53:19;;;;;;;7.53;6.53;;;12.90;99.90;;;;;;5028676;28;20575;-68
2023/09/27 02:55:44;;;;;;;8.70;7.90;;;12.80;99.90;;;;;;5030798;28;20445;-68
2023/09/27 02:58:10;;;;;;;7.27;6.67;;;12.80;99.90;;;;;;5035012;28;20174;-68
2023/09/27 03:00:36;;;;;;;7.20;6.50;;;12.80;99.90;;;;;;5031548;28;20231;-68
2023/09/27 03:03:03;;;;;;;8.33;7.60;;;12.70;99.90;;;;;;5045093;28;20658;-68
2023/09/27 03:05:30;;;;;;;7.10;6.40;;;12.70;99.90;;;;;;5035413;28;20933;-68
2023/09/27 03:07:57;;;;;;;9.13;8.23;;;12.70;99.90;;;;;;5034702;28;20451;-68
2023/09/27 03:10:22;;;;;;;8.53;7.70;;;12.70;99.90;;;;;;5037378;28;20737;-68
2023/09/27 03:12:51;;;;;;;9.43;8.63;;;12.70;99.90;;;;;;5038559;28;20557;-68
2023/09/27 03:15:17;;;;;;;9.60;8.50;;;12.70;99.90;;;;;;5046324;28;20170;-68
2023/09/27 03:17:44;;;;;;;7.47;6.87;;;12.70;99.90;;;;;;5037628;28;20794;-68
2023/09/27 03:20:14;;;;;;;12.10;7.00;;;12.70;99.90;;;;;;5033477;28;20257;-68
2023/09/27 03:22:39;;;;;;;8.60;7.90;;;12.70;99.90;;;;;;5026858;28;21010;-68
2023/09/27 03:25:07;;;;;;;7.80;7.10;;;12.70;99.90;;;;;;5028424;28;21007;-68
2023/09/27 03:27:33;;;;;;;8.30;7.50;;;12.60;99.90;;;;;;5032403;28;20269;-68
2023/09/27 03:29:59;;;;;;;9.80;8.00;;;12.60;99.90;;;;;;5026304;28;20540;-68
2023/09/27 03:32:24;;;;;;;8.93;8.20;;;12.60;99.90;;;;;;5031580;28;20220;-68
2023/09/27 03:34:51;;;;;;;8.03;7.23;;;12.60;99.90;;;;;;5034366;28;20436;-68
2023/09/27 03:37:16;;;;;;;8.40;7.70;;;12.60;99.90;;;;;;5027844;28;20183;-68
2023/09/27 03:39:42;;;;;;;7.97;7.20;;;12.60;99.90;;;;;;5031832;28;20926;-68
2023/09/27 03:42:08;;;;;;;7.17;6.57;;;12.50;99.90;;;;;;5024773;28;20218;-68
2023/09/27 03:44:34;;;;;;;8.40;7.57;;;12.50;99.90;;;;;;5027682;28;20813;-68
2023/09/27 03:47:00;;;;;;;7.87;7.17;;;12.50;99.90;;;;;;5027295;28;20185;-68
2023/09/27 03:49:25;;;;;;;6.70;6.20;;;12.50;99.90;;;;;;5031384;28;20449;-68
2023/09/27 03:51:51;;;;;;;8.80;8.10;;;12.40;99.90;;;;;;5024516;28;20214;-68
2023/09/27 03:54:17;;;;;;;7.77;7.07;;;12.40;99.90;;;;;;5026019;28;20181;-68
2023/09/27 03:56:42;;;;;;;8.20;7.50;;;12.40;99.90;;;;;;5030156;28;20178;-68
2023/09/27 03:59:08;;;;;;;9.27;8.17;;;12.40;99.90;;;;;;5036082;28;20185;-68
2023/09/27 04:01:33;;;;;;;10.77;8.27;;;12.40;99.90;;;;;;5032667;28;20221;-68
2023/09/27 04:04:00;;;;;;;8.23;7.50;;;12.40;99.90;;;;;;5028970;28;20174;-68
2023/09/27 04:06:25;;;;;;;7.90;7.20;;;12.30;99.90;;;;;;5025304;28;20635;-68
2023/09/27 04:08:51;;;;;;;7.80;7.17;;;12.30;99.90;;;;;;5030376;28;20444;-68
2023/09/27 04:11:17;;;;;;;10.20;9.40;;;12.30;99.90;;;;;;5024849;28;20739;-68
2023/09/27 04:13:43;;;;;;;8.97;8.27;;;12.40;99.90;;;;;;5025711;28;20221;-68
2023/09/27 04:16:08;;;;;;;8.60;7.70;;;12.30;99.90;;;;;;5030181;28;20260;-68
2023/09/27 04:18:34;;;;;;;10.30;9.30;;;12.30;99.90;;;;;;5027951;28;20520;-68
2023/09/27 04:21:07;;;;;;;9.17;8.37;;;12.30;99.90;;;;;;5021919;28;20189;-68
2023/09/27 04:23:33;;;;;;;9.43;8.53;;;12.30;99.90;;;;;;5027392;28;20198;-68
2023/09/27 04:26:05;;;;;;;9.00;8.20;;;12.30;99.90;;;;;;5027130;28;20493;-68
2023/09/27 04:28:30;;;;;;;8.20;7.57;;;12.20;99.90;;;;;;5027457;28;20861;-68
2023/09/27 04:30:56;;;;;;;7.83;7.13;;;12.20;99.90;;;;;;5028990;28;20460;-68
2023/09/27 04:33:22;;;;;;;10.00;9.13;;;12.20;99.90;;;;;;5024186;28;20552;-68
2023/09/27 04:35:48;;;;;;;9.97;7.60;;;12.30;99.90;;;;;;5026559;28;20181;-68
2023/09/27 04:38:14;;;;;;;9.50;7.90;;;12.10;99.90;;;;;;5034197;28;20178;-68
2023/09/27 04:40:40;;;;;;;8.20;7.50;;;12.10;99.90;;;;;;5036054;28;20543;-68
2023/09/27 04:43:05;;;;;;;8.80;8.00;;;12.00;99.90;;;;;;5029999;28;20468;-68
2023/09/27 04:45:31;;;;;;;11.13;7.43;;;12.00;99.90;;;;;;5034094;28;20186;-68
2023/09/27 04:47:57;;;;;;;8.93;8.13;;;12.00;99.90;;;;;;5043275;28;20228;-68
2023/09/27 04:50:22;;;;;;;9.40;8.50;;;12.00;99.90;;;;;;5052771;28;20173;-68
2023/09/27 04:52:48;;;;;;;7.93;7.17;;;12.00;99.90;;;;;;5036334;28;20255;-68
2023/09/27 04:55:14;;;;;;;9.40;8.53;;;11.90;99.90;;;;;;5028199;28;20190;-68
2023/09/27 04:57:40;;;;;;;9.20;8.30;;;11.90;99.90;;;;;;5032693;28;20220;-69
2023/09/27 05:00:13;;;;;;;8.00;7.30;;;11.80;99.90;;;;;;5024635;28;20437;-68
2023/09/27 05:02:39;;;;;;;8.87;8.07;;;11.80;99.90;;;;;;5021765;28;20202;-68
2023/09/27 05:05:05;;;;;;;9.43;8.53;;;11.80;99.90;;;;;;5027043;28;20436;-69
2023/09/27 05:07:30;;;;;;;9.37;8.43;;;11.80;99.90;;;;;;5032581;28;20635;-69
2023/09/27 05:09:56;;;;;;;8.97;8.23;;;11.80;99.90;;;;;;5028636;28;20457;-68
2023/09/27 05:12:22;;;;;;;9.13;8.20;;;11.80;99.90;;;;;;5024948;28;20213;-69
2023/09/27 05:14:47;;;;;;;9.07;8.17;;;11.90;99.90;;;;;;5029091;28;20640;-67
2023/09/27 05:17:13;;;;;;;9.90;8.93;;;12.00;99.90;;;;;;5021083;28;20181;-68
2023/09/27 05:19:38;;;;;;;9.97;9.10;;;12.00;99.90;;;;;;5033894;28;20257;-68
2023/09/27 05:22:04;;;;;;;13.77;10.30;;;12.10;99.90;;;;;;5036556;28;20233;-71
2023/09/27 05:24:29;;;;;;;11.43;10.37;;;12.10;99.90;;;;;;5025903;28;20677;-70
2023/09/27 05:26:59;;;;;;;10.80;9.47;;;12.00;99.90;;;;;;5024605;28;20184;-68
2023/09/27 05:29:24;;;;;;;9.17;8.30;;;12.10;99.90;;;;;;5036024;28;20178;-69
2023/09/27 05:31:50;;;;;;;8.53;7.87;;;12.00;99.90;;;;;;5033602;28;20461;-67
2023/09/27 05:34:15;;;;;;;9.50;8.70;;;12.10;99.90;;;;;;5033686;28;20280;-66
2023/09/27 05:36:41;;;;;;;10.77;9.77;;;12.10;99.90;;;;;;5038099;28;20628;-67
2023/09/27 05:39:08;;;;;;;10.00;8.50;;;12.10;99.90;;;;;;5036972;28;20178;-66
2023/09/27 05:41:35;;;;;;;10.50;9.50;;;12.20;99.90;;;;;;5033774;28;20551;-66
2023/09/27 05:44:00;;;;;;;11.67;10.60;;;12.20;99.90;;;;;;5033781;28;20512;-66
2023/09/27 05:46:26;;;;;;;9.70;8.90;;;12.10;99.90;;;;;;5033632;28;21012;-67
2023/09/27 05:48:52;;;;;;;9.53;8.67;;;12.20;99.90;;;;;;5032106;28;20650;-66
2023/09/27 05:51:17;;;;;;;9.77;8.70;;;12.30;99.90;;;;;;5033547;28;20456;-67
2023/09/27 05:53:43;;;;;;;9.17;8.33;;;12.40;99.90;;;;;;5033198;28;20194;-66
2023/09/27 05:56:08;;;;;;;8.93;8.13;;;12.60;99.90;;;;;;5026682;28;20171;-67
2023/09/27 05:58:35;;;;;;;10.23;9.03;;;12.60;99.90;;;;;;5033188;28;20201;-67
2023/09/27 06:01:02;;;;;;;8.97;8.20;;;12.70;99.90;;;;;;5033516;28;20181;-67
2023/09/27 06:03:29;;;;;;;9.70;8.80;;;12.70;99.90;;;;;;5033243;28;20445;-66
2023/09/27 06:05:56;;;;;;;12.20;9.03;;;12.90;99.90;;;;;;5034241;28;20922;-66
2023/09/27 06:08:22;;;;;;;12.60;9.10;;;13.20;99.90;;;;;;5036435;28;20520;-66
2023/09/27 06:10:48;;;;;;;11.03;9.27;;;13.40;99.90;;;;;;5037258;28;20425;-67
2023/09/27 06:13:14;;;;;;;10.00;9.10;;;13.60;99.90;;;;;;5037156;28;20502;-66
2023/09/27 06:15:41;;;;;;;10.60;9.70;;;13.80;99.90;;;;;;5037879;28;20236;-67
2023/09/27 06:18:07;;;;;;;11.43;10.27;;;14.10;99.90;;;;;;5037750;28;20466;-67
2023/09/27 06:20:32;;;;;;;12.10;9.27;;;14.20;99.90;;;;;;5033193;28;20528;-66
2023/09/27 06:23:03;;;;;;;9.70;8.87;;;14.40;99.90;;;;;;5029024;28;20202;-66
2023/09/27 06:25:30;;;;;;;15.00;9.60;;;14.60;99.90;;;;;;5035576;28;20182;-67
2023/09/27 06:28:00;;;;;;;9.90;9.03;;;14.70;99.90;;;;;;5032877;28;20444;-66
2023/09/27 06:30:26;;;;;;;13.27;10.00;;;14.80;99.90;;;;;;5037703;28;20456;-67
2023/09/27 06:32:52;;;;;;;9.77;8.97;;;14.90;99.90;;;;;;5036355;28;20958;-66
2023/09/27 06:35:17;;;;;;;14.70;9.37;;;15.10;99.90;;;;;;5038020;28;20174;-67
2023/09/27 06:37:46;;;;;;;8.20;7.57;;;15.30;99.90;;;;;;5038316;28;20201;-67
2023/09/27 06:40:16;;;;;;;10.37;9.10;;;15.10;99.90;;;;;;5038814;28;20171;-67
2023/09/27 06:42:43;;;;;;;9.03;8.20;;;15.20;99.90;;;;;;5037293;28;20498;-68
2023/09/27 06:45:10;;;;;;;10.23;9.37;;;15.20;99.90;;;;;;5037961;28;20444;-67
2023/09/27 06:47:38;;;;;;;9.73;8.83;;;15.20;99.90;;;;;;5037418;28;20432;-67
2023/09/27 06:50:04;;;;;;;11.27;9.53;;;15.20;99.90;;;;;;5038474;28;20439;-67
2023/09/27 06:52:30;;;;;;;10.83;9.73;;;15.30;99.90;;;;;;5038246;28;20517;-67
2023/09/27 06:54:57;;;;;;;12.03;10.60;;;15.50;99.90;;;;;;5037386;28;20507;-67
2023/09/27 06:57:23;;;;;;;11.40;8.93;;;15.60;99.90;;;;;;5032374;28;20437;-67
2023/09/27 06:59:49;;;;;;;10.20;9.17;;;15.90;99.90;;;;;;5038287;28;20764;-66
2023/09/27 07:02:16;;;;;;;10.80;9.90;;;16.20;99.90;;;;;;5037197;28;20202;-66
2023/09/27 07:04:42;;;;;;;10.23;9.30;;;16.50;99.90;;;;;;5039122;28;20456;-67
2023/09/27 07:07:08;;;;;;;10.90;9.80;;;16.70;99.90;;;;;;5040546;28;20479;-66
2023/09/27 07:09:34;;;;;;;10.70;9.60;;;16.90;99.90;;;;;;5041895;28;20455;-66
2023/09/27 07:12:00;;;;;;;10.90;10.00;;;16.90;99.90;;;;;;5042396;28;20472;-66
2023/09/27 07:14:26;;;;;;;10.97;9.87;;;17.00;99.90;;;;;;5042612;28;20174;-66
2023/09/27 07:16:51;;;;;;;13.40;9.60;;;17.20;99.90;;;;;;5039481;28;21570;-66
2023/09/27 07:19:19;;;;;;;13.20;10.37;;;17.30;99.90;;;;;;5039289;28;20425;-66
2023/09/27 07:21:45;;;;;;;11.50;8.57;;;17.50;99.90;;;;;;5039408;28;20247;-66
2023/09/27 07:24:11;;;;;;;9.77;9.00;;;17.80;99.90;;;;;;5042691;28;20417;-66
2023/09/27 07:26:37;;;;;;;12.93;9.00;;;17.80;99.90;;;;;;5042893;28;20178;-66
2023/09/27 07:29:03;;;;;;;12.63;10.83;;;17.80;99.90;;;;;;5036099;28;20188;-66
2023/09/27 07:31:29;;;;;;;9.03;8.20;;;17.80;99.90;;;;;;5040636;28;20953;-66
2023/09/27 07:33:56;;;;;;;12.70;10.10;;;18.00;99.90;;;;;;5042471;28;20162;-67
2023/09/27 07:36:24;;;;;;;10.20;9.37;;;18.30;99.90;;;;;;5042525;28;20162;-66
2023/09/27 07:38:51;;;;;;;10.77;9.23;;;18.50;99.90;;;;;;5041808;28;20420;-65
2023/09/27 07:41:16;;;;;;;9.83;8.97;;;18.40;99.90;;;;;;5040985;28;20437;-66
2023/09/27 07:43:42;;;;;;;10.10;8.30;;;18.50;99.90;;;;;;5037706;28;20856;-66
2023/09/27 07:46:09;;;;;;;8.13;7.43;;;18.70;99.90;;;;;;5036236;28;20627;-66
2023/09/27 07:48:38;;;;;;;9.50;7.77;;;19.10;99.90;;;;;;5036263;28;20228;-66
2023/09/27 07:51:10;;;;;;;11.30;10.30;;;19.60;99.90;;;;;;5036327;28;20479;-66
2023/09/27 07:53:37;;;;;;;14.17;9.70;;;20.00;99.90;;;;;;5031690;28;20548;-67
2023/09/27 07:56:03;;;;;;;8.90;8.10;;;20.30;99.90;;;;;;5034306;28;20433;-66
2023/09/27 07:58:29;;;;;;;8.10;7.40;;;20.60;99.90;;;;;;5036214;28;20825;-66
2023/09/27 08:00:55;;;;;;;8.57;7.67;;;20.90;99.90;;;;;;5035440;28;20618;-66
2023/09/27 08:03:21;;;;;;;12.00;7.60;;;21.10;99.90;;;;;;5034324;28;20193;-66
2023/09/27 08:05:49;;;;;;;7.77;7.10;;;21.40;99.90;;;;;;5033407;28;20182;-67
2023/09/27 08:08:15;;;;;;;7.83;7.20;;;21.70;99.90;;;;;;5034602;28;20428;-66
2023/09/27 08:10:45;;;;;;;8.27;7.40;;;21.80;99.90;;;;;;5034208;28;20421;-66
2023/09/27 08:13:12;;;;;;;8.03;7.23;;;21.90;99.90;;;;;;5033765;28;20861;-66
2023/09/27 08:15:39;;;;;;;7.93;7.33;;;21.90;99.90;;;;;;5032577;28;20958;-66
2023/09/27 08:18:05;;;;;;;8.57;7.67;;;22.10;99.90;;;;;;5028205;28;20433;-66
2023/09/27 08:20:30;;;;;;;9.83;8.20;;;22.20;99.90;;;;;;5033129;28;20436;-67
2023/09/27 08:22:56;;;;;;;9.40;7.90;;;22.50;99.90;;;;;;5030940;28;20193;-66
2023/09/27 08:25:21;;;;;;;7.83;6.90;;;22.20;99.90;;;;;;5032453;28;20174;-66
2023/09/27 08:27:50;;;;;;;7.40;6.70;;;22.10;99.90;;;;;;5030474;28;20221;-67
2023/09/27 08:30:16;;;;;;;8.27;7.47;;;22.70;99.90;;;;;;5032210;28;20205;-67
2023/09/27 08:32:42;;;;;;;10.00;6.50;;;23.50;99.90;;;;;;5032183;28;20479;-67
2023/09/27 08:35:08;;;;;;;7.53;6.70;;;24.00;99.90;;;;;;5030345;28;20505;-67
2023/09/27 08:37:34;;;;;;;10.00;5.90;;;24.20;99.90;;;;;;5031613;28;20429;-69
2023/09/27 08:40:00;;;;;;;9.40;8.37;;;24.60;99.90;;;;;;5030658;28;20857;-67
2023/09/27 08:42:27;;;;;;;7.73;6.60;;;25.00;99.90;;;;;;5031728;28;20610;-66
2023/09/27 08:44:53;;;;;;;9.87;6.00;;;25.50;99.90;;;;;;5030503;28;20634;-67
2023/09/27 08:47:19;;;;;;;6.53;5.53;;;25.80;99.90;;;;;;5029890;28;20956;-66
2023/09/27 08:49:49;;;;;;;9.87;6.23;;;26.20;99.90;;;;;;5031603;28;20417;-67
2023/09/27 08:52:16;;;;;;;7.67;6.27;;;26.80;98.60;;;;;;5031412;28;20515;-67
2023/09/27 08:54:43;;;;;;;6.27;5.67;;;27.10;97.30;;;;;;5033444;28;20425;-68
2023/09/27 08:57:09;;;;;;;6.17;5.70;;;27.40;95.40;;;;;;5032645;28;20460;-67
2023/09/27 08:59:35;;;;;;;5.70;5.30;;;27.90;93.70;;;;;;5033604;28;20420;-68
2023/09/27 09:02:04;;;;;;;6.00;5.17;;;27.80;92.00;;;;;;5033650;28;20809;-68
2023/09/27 09:04:32;;;;;;;5.97;5.57;;;28.20;91.00;;;;;;5030460;28;20189;-69
2023/09/27 09:06:58;;;;;;;6.10;5.10;;;27.80;89.10;;;;;;5031696;28;20929;-69
2023/09/27 09:09:26;;;;;;;7.23;5.43;;;27.50;90.70;;;;;;5031602;28;20431;-69
2023/09/27 09:11:57;;;;;;;5.43;5.03;;;28.00;91.40;;;;;;5032519;28;20212;-69
2023/09/27 09:14:43;;;;;;;7.10;4.63;;;29.50;87.00;;;;;;5025291;28;20491;-68
2023/09/27 09:17:10;;;;;;;6.13;5.53;;;29.30;81.60;;;;;;5027769;28;20431;-67
2023/09/27 09:19:38;;;;;;;6.50;5.90;;;28.70;83.00;;;;;;5031880;28;20781;-68
2023/09/27 09:22:08;;;;;;;7.17;6.57;;;30.00;78.00;;;;;;5032089;28;20555;-68
2023/09/27 09:24:41;;;;;;;6.00;5.50;;;31.40;72.30;;;;;;5031959;28;20512;-69
2023/09/27 09:27:10;;;;;;;6.87;4.83;;;31.40;69.20;;;;;;5028731;28;20794;-68
2023/09/27 09:29:51;;;;;;;5.50;5.00;;;31.60;66.70;;;;;;5032319;28;20420;-68
2023/09/27 09:32:19;;;;;;;5.63;5.20;;;33.10;62.10;;;;;;5012473;28;20469;-69
2023/09/27 09:34:49;;;;;;;6.17;5.57;;;33.90;57.50;;;;;;5012278;28;20424;-67
2023/09/27 09:37:23;;;;;;;5.40;5.00;;;33.70;55.90;;;;;;5012964;28;20434;-68
2023/09/27 09:39:53;;;;;;;6.00;5.50;;;33.80;54.70;;;;;;5032266;28;20420;-69
2023/09/27 09:42:31;;;;;;;6.33;5.23;;;32.10;56.50;;;;;;5030323;28;20441;-69
2023/09/27 09:45:10;;;;;;;6.00;5.17;;;32.90;55.90;;;;;;5031378;28;20433;-69
2023/09/27 09:47:37;;;;;;;4.83;4.50;;;33.90;53.50;;;;;;5032061;28;20416;-70
2023/09/27 09:50:07;;;;;;;5.60;5.20;;;35.00;52.00;;;;;;5029660;28;20470;-70
2023/09/27 09:52:35;;;;;;;5.50;5.10;;;35.90;49.00;;;;;;5031584;28;20551;-68
2023/09/27 09:55:03;;;;;;;5.60;5.10;;;36.40;47.50;;;;;;5031987;28;20791;-68
2023/09/27 09:57:41;;;;;;;5.80;5.30;;;36.50;46.30;;;;;;5030584;28;20421;-69
2023/09/27 10:00:18;;;;;;;5.53;5.03;;;37.80;44.80;;;;;;5031987;28;20417;-68
2023/09/27 10:02:53;;;;;;;4.97;4.57;;;35.90;44.70;;;;;;5030464;28;20467;-68
2023/09/27 10:05:19;;;;;;;5.33;4.93;;;36.50;44.90;;;;;;5031846;28;20416;-68
2023/09/27 10:07:46;;;;;;;5.70;4.83;;;34.50;45.50;;;;;;5031777;28;20910;-68
2023/09/27 10:10:13;;;;;;;4.67;4.37;;;35.70;45.70;;;;;;5031635;28;20447;-68
2023/09/27 10:12:46;;;;;;;4.70;4.30;;;35.10;45.30;;;;;;5029481;28;20472;-68
2023/09/27 10:15:17;;;;;;;4.53;4.00;;;34.60;45.30;;;;;;5031102;28;20475;-68
2023/09/27 10:17:43;;;;;;;3.90;3.60;;;34.40;45.70;;;;;;5031780;28;20409;-68
2023/09/27 10:20:14;;;;;;;4.20;3.90;;;33.60;45.50;;;;;;5031627;28;20425;-68
2023/09/27 10:22:44;;;;;;;5.43;4.93;;;32.20;46.90;;;;;;5025007;28;20456;-68
2023/09/27 10:25:28;;;;;;;5.50;4.50;;;31.90;47.40;;;;;;5031721;28;20431;-68
2023/09/27 10:28:04;;;;;;;4.43;4.03;;;33.10;47.10;;;;;;5031878;28;20478;-67
2023/09/27 10:30:42;;;;;;;5.13;4.73;;;35.40;44.60;;;;;;5031920;28;20417;-68
2023/09/27 10:33:16;;;;;;;3.90;3.60;;;35.20;43.40;;;;;;5031532;28;20873;-68
2023/09/27 10:35:47;;;;;;;5.23;4.80;;;34.50;43.80;;;;;;5024488;28;20464;-68
2023/09/27 10:38:13;;;;;;;4.93;3.53;;;33.00;45.00;;;;;;5031618;28;20416;-68
2023/09/27 10:40:46;;;;;;;3.60;3.30;;;33.40;45.40;;;;;;5030356;28;20423;-68
2023/09/27 10:43:38;;;;;;;3.83;3.57;;;35.50;44.10;;;;;;5031469;28;20436;-68
2023/09/27 10:46:04;;;;;;;3.80;3.60;;;36.50;41.10;;;;;;5031145;28;20440;-68
2023/09/27 10:48:33;;;;;;;3.40;3.10;;;37.90;40.10;;;;;;5022668;28;20474;-68
2023/09/27 10:50:59;;;;;;;3.20;2.90;;;39.30;38.20;;;;;;5031588;28;20425;-68
2023/09/27 10:53:25;;;;;;;3.70;3.40;;;40.60;39.40;;;;;;5033258;28;21012;-68
2023/09/27 10:55:51;;;;;;;3.43;3.23;;;41.60;37.40;;;;;;5030091;28;20189;-69
2023/09/27 10:58:17;;;;;;;4.00;3.40;;;41.90;36.60;;;;;;5030814;28;20787;-69
2023/09/27 11:01:00;;;;;;;3.40;3.10;;;42.10;36.50;;;;;;5035408;28;20216;-69
2023/09/27 11:03:27;;;;;;;3.00;2.80;;;41.90;36.20;;;;;;5034971;28;20190;-69
2023/09/27 11:05:52;;;;;;;3.40;3.20;;;42.10;35.50;;;;;;5035007;28;20453;-69
2023/09/27 11:08:23;;;;;;;3.43;3.13;;;41.00;35.20;;;;;;5026635;28;20465;-69
2023/09/27 11:10:51;;;;;;;3.13;2.93;;;41.10;34.70;;;;;;5034984;28;20158;-69
2023/09/27 11:13:17;;;;;;;3.90;3.60;;;42.30;34.20;;;;;;5032228;22;20584;-66
2023/09/27 11:15:43;;;;;;;3.83;3.60;;;40.10;34.30;;;;;;4995529;28;20514;-66
2023/09/27 11:18:10;;;;;;;3.53;3.23;;;41.40;34.50;;;;;;4995409;28;20247;-66
2023/09/27 11:20:36;;;;;;;4.03;3.37;;;43.00;33.10;;;;;;4994251;28;20582;-65
2023/09/27 11:23:02;;;;;;;3.90;3.70;;;44.30;36.30;;;;;;4994956;28;20438;-65
2023/09/27 11:25:32;;;;;;;3.33;3.13;;;44.90;27.00;;;;;;4995300;28;20431;-66
2023/09/27 11:27:58;;;;;;;5.80;3.40;;;44.30;25.30;;;;;;4995434;28;20494;-65
2023/09/27 11:30:30;;;;;;;4.40;2.50;;;45.20;24.80;;;;;;4995156;28;20498;-66
2023/09/27 11:32:57;;;;;;;2.80;2.60;;;45.10;23.80;;;;;;4992510;28;20470;-66
2023/09/27 11:35:26;;;;;;;2.80;2.70;;;43.00;24.50;;;;;;4994963;28;20485;-66
2023/09/27 11:38:11;;;;;;;3.87;3.00;;;42.00;24.60;;;;;;4995362;28;20430;-66
2023/09/27 11:40:42;;;;;;;4.87;2.73;;;42.20;25.00;;;;;;4995041;28;20419;-66
2023/09/27 11:43:07;;;;;;;2.70;2.60;;;44.20;24.50;;;;;;4994702;28;20473;-67
2023/09/27 11:45:49;;;;;;;6.10;3.10;;;45.60;23.50;;;;;;4993948;28;20454;-66
2023/09/27 11:48:15;;;;;;;4.00;3.27;;;44.20;23.20;;;;;;4995038;28;20178;-66
2023/09/27 11:50:41;;;;;;;2.40;2.20;;;41.80;24.10;;;;;;4994868;28;20419;-66
2023/09/27 11:53:07;;;;;;;4.10;2.50;;;41.00;25.30;;;;;;4994364;28;20469;-66
2023/09/27 11:55:33;;;;;;;2.97;2.37;;;41.10;25.20;;;;;;4994633;28;20659;-66
2023/09/27 11:57:59;;;;;;;2.80;2.60;;;43.30;24.60;;;;;;4992619;28;20175;-66
2023/09/27 12:00:25;;;;;;;2.97;2.77;;;44.30;24.00;;;;;;4994642;28;20429;-67
2023/09/27 12:02:52;;;;;;;2.53;2.30;;;42.90;24.10;;;;;;4994306;28;20447;-67
2023/09/27 12:05:18;;;;;;;2.87;2.77;;;42.90;24.50;;;;;;4994264;28;20422;-67
2023/09/27 12:07:44;;;;;;;3.37;3.07;;;43.90;24.70;;;;;;4994037;28;20427;-66
2023/09/27 12:10:10;;;;;;;2.87;2.60;;;44.30;24.20;;;;;;4994311;28;20183;-66
2023/09/27 12:12:36;;;;;;;2.63;2.43;;;44.40;23.60;;;;;;4993781;28;20222;-66
2023/09/27 12:15:03;;;;;;;3.73;2.50;;;44.30;23.40;;;;;;4994417;28;20421;-65
2023/09/27 12:17:29;;;;;;;4.03;3.73;;;43.40;23.40;;;;;;4994324;28;20414;-67
2023/09/27 12:19:54;;;;;;;2.87;2.63;;;41.00;24.50;;;;;;4993628;28;20954;-66
2023/09/27 12:22:20;;;;;;;3.70;3.40;;;40.30;24.80;;;;;;4993721;28;20278;-66
2023/09/27 12:24:46;;;;;;;2.73;2.53;;;41.70;24.70;;;;;;4993909;28;20537;-66
2023/09/27 12:27:12;;;;;;;2.83;2.73;;;44.40;23.60;;;;;;4994079;28;20267;-66
2023/09/27 12:29:37;;;;;;;3.53;3.20;;;45.30;23.00;;;;;;4994076;28;20509;-67
2023/09/27 12:32:03;;;;;;;3.67;2.67;;;46.50;22.60;;;;;;4993748;28;20227;-67
2023/09/27 12:34:30;;;;;;;3.50;3.30;;;45.70;22.30;;;;;;4993008;28;20183;-67
2023/09/27 12:36:56;;;;;;;4.53;2.77;;;46.00;22.40;;;;;;4993967;28;20191;-66
2023/09/27 12:39:21;;;;;;;3.27;3.07;;;45.90;22.50;;;;;;4993838;28;20449;-66
2023/09/27 12:41:47;;;;;;;4.03;2.80;;;45.90;22.60;;;;;;4993785;28;20270;-67
2023/09/27 12:44:12;;;;;;;8.03;3.13;;;44.90;22.60;;;;;;4993792;28;20215;-65